sensor_id;sensor_type;location;lat;lon;timestamp;pressure;altitude;pressure_sealevel;temperature;humidity
29467;BME280;60968;37.490;-122.288;2023-06-01T00:00:08;98291.06;;;17.11;55.67
29467;BME280;60968;37.490;-122.288;2023-06-01T00:03:10;98289.19;;;16.97;54.97
29467;BME280;60968;37.490;-122.288;2023-06-01T00:06:11;98283.59;;;17.04;55.67
29467;BME280;60968;37.490;-122.288;2023-06-01T00:09:12;98271.97;;;16.90;56.87
29467;BME280;60968;37.490;-122.288;2023-06-01T00:12:13;98272.53;;;16.79;57.56
29467;BME280;60968;37.490;-122.288;2023-06-01T00:15:14;98269.72;;;16.65;58.20
29467;BME280;60968;37.490;-122.288;2023-06-01T00:18:15;98279.63;;;16.25;60.93
29467;BME280;60968;37.490;-122.288;2023-06-01T00:21:15;98279.66;;;16.06;59.68
29467;BME280;60968;37.490;-122.288;2023-06-01T00:24:16;98290.81;;;15.73;62.58
29467;BME280;60968;37.490;-122.288;2023-06-01T00:27:17;98276.34;;;15.83;63.68
29467;BME280;60968;37.490;-122.288;2023-06-01T00:30:21;98282.16;;;16.09;62.68
29467;BME280;60968;37.490;-122.288;2023-06-01T00:33:21;98283.00;;;15.90;61.65
29467;BME280;60968;37.490;-122.288;2023-06-01T00:36:22;98286.84;;;15.64;61.83
29467;BME280;60968;37.490;-122.288;2023-06-01T00:39:28;98284.78;;;15.52;64.49
29467;BME280;60968;37.490;-122.288;2023-06-01T00:42:29;98284.84;;;15.50;64.90
29467;BME280;60968;37.490;-122.288;2023-06-01T00:45:30;98280.38;;;15.52;67.43
29467;BME280;60968;37.490;-122.288;2023-06-01T00:48:31;98271.25;;;15.80;64.74
29467;BME280;60968;37.490;-122.288;2023-06-01T00:51:32;98274.78;;;15.79;65.51
29467;BME280;60968;37.490;-122.288;2023-06-01T00:54:33;98277.59;;;15.74;65.33
29467;BME280;60968;37.490;-122.288;2023-06-01T00:57:34;98272.81;;;15.84;64.84
29467;BME280;60968;37.490;-122.288;2023-06-01T01:00:35;98280.81;;;15.62;65.01
29467;BME280;60968;37.490;-122.288;2023-06-01T01:03:37;98283.25;;;15.27;67.25
29467;BME280;60968;37.490;-122.288;2023-06-01T01:07:19;98272.50;;;14.94;67.87
29467;BME280;60968;37.490;-122.288;2023-06-01T01:14:08;98283.47;;;14.61;69.55
29467;BME280;60968;37.490;-122.288;2023-06-01T01:17:42;98275.22;;;14.49;69.97
29467;BME280;60968;37.490;-122.288;2023-06-01T01:20:50;98275.50;;;14.43;72.20
29467;BME280;60968;37.490;-122.288;2023-06-01T01:23:59;98277.16;;;14.44;70.83
29467;BME280;60968;37.490;-122.288;2023-06-01T01:27:18;98280.00;;;14.39;72.16
29467;BME280;60968;37.490;-122.288;2023-06-01T01:30:27;98278.81;;;14.26;72.99
29467;BME280;60968;37.490;-122.288;2023-06-01T01:33:31;98287.03;;;14.17;74.41
29467;BME280;60968;37.490;-122.288;2023-06-01T01:36:33;98282.31;;;13.81;76.27
29467;BME280;60968;37.490;-122.288;2023-06-01T01:39:38;98280.47;;;13.61;77.74
29467;BME280;60968;37.490;-122.288;2023-06-01T01:42:39;98289.47;;;13.53;77.65
29467;BME280;60968;37.490;-122.288;2023-06-01T01:45:41;98284.28;;;13.28;80.06
29467;BME280;60968;37.490;-122.288;2023-06-01T01:49:12;98303.44;;;13.29;80.81
29467;BME280;60968;37.490;-122.288;2023-06-01T01:52:33;98298.56;;;13.19;81.05
29467;BME280;60968;37.490;-122.288;2023-06-01T01:55:36;98301.69;;;13.29;80.54
29467;BME280;60968;37.490;-122.288;2023-06-01T01:58:37;98296.25;;;13.10;83.00
29467;BME280;60968;37.490;-122.288;2023-06-01T02:01:41;98294.94;;;12.98;83.81
29467;BME280;60968;37.490;-122.288;2023-06-01T02:04:43;98297.09;;;12.87;84.72
29467;BME280;60968;37.490;-122.288;2023-06-01T02:07:45;98294.34;;;12.90;84.30
29467;BME280;60968;37.490;-122.288;2023-06-01T02:10:45;98293.47;;;12.90;84.19
29467;BME280;60968;37.490;-122.288;2023-06-01T02:13:47;98287.16;;;12.97;84.57
29467;BME280;60968;37.490;-122.288;2023-06-01T02:16:48;98292.88;;;12.83;86.68
29467;BME280;60968;37.490;-122.288;2023-06-01T02:19:49;98298.34;;;12.75;86.87
29467;BME280;60968;37.490;-122.288;2023-06-01T02:22:50;98296.34;;;12.57;88.80
29467;BME280;60968;37.490;-122.288;2023-06-01T02:25:51;98300.69;;;12.58;88.96
29467;BME280;60968;37.490;-122.288;2023-06-01T02:28:52;98308.63;;;12.55;89.61
29467;BME280;60968;37.490;-122.288;2023-06-01T02:31:52;98312.81;;;12.60;88.24
29467;BME280;60968;37.490;-122.288;2023-06-01T02:34:53;98313.22;;;12.48;89.89
29467;BME280;60968;37.490;-122.288;2023-06-01T02:37:54;98310.78;;;12.42;87.52
29467;BME280;60968;37.490;-122.288;2023-06-01T02:40:55;98318.88;;;12.34;89.03
29467;BME280;60968;37.490;-122.288;2023-06-01T02:43:56;98324.88;;;12.38;88.98
29467;BME280;60968;37.490;-122.288;2023-06-01T02:46:57;98315.38;;;12.35;88.62
29467;BME280;60968;37.490;-122.288;2023-06-01T02:49:57;98320.66;;;12.33;88.17
29467;BME280;60968;37.490;-122.288;2023-06-01T02:52:59;98328.59;;;12.29;88.93
29467;BME280;60968;37.490;-122.288;2023-06-01T02:56:00;98338.44;;;12.21;87.59
29467;BME280;60968;37.490;-122.288;2023-06-01T02:59:01;98333.03;;;12.27;87.39
29467;BME280;60968;37.490;-122.288;2023-06-01T03:02:02;98333.94;;;12.26;88.10
29467;BME280;60968;37.490;-122.288;2023-06-01T03:05:03;98336.94;;;12.13;89.17
29467;BME280;60968;37.490;-122.288;2023-06-01T03:08:05;98342.31;;;12.09;90.25
29467;BME280;60968;37.490;-122.288;2023-06-01T03:11:05;98337.19;;;12.06;91.07
29467;BME280;60968;37.490;-122.288;2023-06-01T03:14:08;98341.13;;;11.89;92.61
29467;BME280;60968;37.490;-122.288;2023-06-01T03:17:09;98349.38;;;11.75;92.70
29467;BME280;60968;37.490;-122.288;2023-06-01T03:20:10;98349.41;;;11.74;93.69
29467;BME280;60968;37.490;-122.288;2023-06-01T03:23:11;98335.41;;;11.76;93.88
29467;BME280;60968;37.490;-122.288;2023-06-01T03:26:12;98352.97;;;11.71;94.21
29467;BME280;60968;37.490;-122.288;2023-06-01T03:29:16;98343.25;;;11.46;97.44
29467;BME280;60968;37.490;-122.288;2023-06-01T03:32:17;98346.28;;;11.31;99.40
29467;BME280;60968;37.490;-122.288;2023-06-01T03:35:19;98344.47;;;11.33;98.74
29467;BME280;60968;37.490;-122.288;2023-06-01T03:38:20;98345.47;;;11.29;98.87
29467;BME280;60968;37.490;-122.288;2023-06-01T03:41:20;98345.47;;;11.29;99.70
29467;BME280;60968;37.490;-122.288;2023-06-01T03:44:21;98350.94;;;11.20;100.00
29467;BME280;60968;37.490;-122.288;2023-06-01T03:47:22;98344.25;;;11.09;100.00
29467;BME280;60968;37.490;-122.288;2023-06-01T03:50:23;98343.28;;;11.13;100.00
29467;BME280;60968;37.490;-122.288;2023-06-01T03:53:24;98347.59;;;11.14;100.00
29467;BME280;60968;37.490;-122.288;2023-06-01T03:56:26;98351.19;;;11.10;100.00
29467;BME280;60968;37.490;-122.288;2023-06-01T03:59:27;98344.06;;;11.17;100.00
29467;BME280;60968;37.490;-122.288;2023-06-01T04:02:28;98346.84;;;11.09;100.00
29467;BME280;60968;37.490;-122.288;2023-06-01T04:05:29;98359.22;;;11.03;100.00
29467;BME280;60968;37.490;-122.288;2023-06-01T04:08:30;98347.91;;;11.02;100.00
29467;BME280;60968;37.490;-122.288;2023-06-01T04:11:33;98356.63;;;11.01;100.00
29467;BME280;60968;37.490;-122.288;2023-06-01T04:14:35;98367.88;;;11.03;100.00
29467;BME280;60968;37.490;-122.288;2023-06-01T04:17:41;98366.03;;;11.08;100.00
29467;BME280;60968;37.490;-122.288;2023-06-01T04:20:42;98359.28;;;10.99;100.00
29467;BME280;60968;37.490;-122.288;2023-06-01T04:23:44;98370.03;;;10.87;100.00
29467;BME280;60968;37.490;-122.288;2023-06-01T04:26:44;98370.13;;;10.82;100.00
29467;BME280;60968;37.490;-122.288;2023-06-01T04:29:46;98376.41;;;10.75;100.00
29467;BME280;60968;37.490;-122.288;2023-06-01T04:32:47;98379.97;;;10.71;100.00
29467;BME280;60968;37.490;-122.288;2023-06-01T04:35:49;98387.06;;;10.66;100.00
29467;BME280;60968;37.490;-122.288;2023-06-01T04:38:50;98380.28;;;10.59;100.00
29467;BME280;60968;37.490;-122.288;2023-06-01T04:41:51;98383.00;;;10.54;100.00
29467;BME280;60968;37.490;-122.288;2023-06-01T04:44:51;98391.69;;;10.53;100.00
29467;BME280;60968;37.490;-122.288;2023-06-01T04:47:52;98386.44;;;10.56;100.00
29467;BME280;60968;37.490;-122.288;2023-06-01T04:50:53;98392.38;;;10.61;100.00
29467;BME280;60968;37.490;-122.288;2023-06-01T04:53:54;98394.22;;;10.58;100.00
29467;BME280;60968;37.490;-122.288;2023-06-01T04:56:55;98397.88;;;10.49;100.00
29467;BME280;60968;37.490;-122.288;2023-06-01T04:59:56;98390.94;;;10.50;100.00
29467;BME280;60968;37.490;-122.288;2023-06-01T05:02:58;98395.91;;;10.59;100.00
29467;BME280;60968;37.490;-122.288;2023-06-01T05:05:59;98393.47;;;10.53;100.00
29467;BME280;60968;37.490;-122.288;2023-06-01T05:09:00;98391.78;;;10.50;100.00
29467;BME280;60968;37.490;-122.288;2023-06-01T05:12:01;98393.75;;;10.40;100.00
29467;BME280;60968;37.490;-122.288;2023-06-01T05:15:05;98394.75;;;10.33;100.00
29467;BME280;60968;37.490;-122.288;2023-06-01T05:18:07;98398.22;;;10.32;100.00
29467;BME280;60968;37.490;-122.288;2023-06-01T05:21:08;98400.88;;;10.30;100.00
29467;BME280;60968;37.490;-122.288;2023-06-01T05:24:09;98402.78;;;10.24;100.00
29467;BME280;60968;37.490;-122.288;2023-06-01T05:27:10;98402.78;;;10.22;100.00
29467;BME280;60968;37.490;-122.288;2023-06-01T05:30:12;98406.28;;;10.23;100.00
29467;BME280;60968;37.490;-122.288;2023-06-01T05:33:13;98399.22;;;10.26;100.00
29467;BME280;60968;37.490;-122.288;2023-06-01T05:36:14;98397.50;;;10.27;100.00
29467;BME280;60968;37.490;-122.288;2023-06-01T05:39:15;98397.53;;;10.25;100.00
29467;BME280;60968;37.490;-122.288;2023-06-01T05:42:16;98401.78;;;10.28;100.00
29467;BME280;60968;37.490;-122.288;2023-06-01T05:45:18;98393.25;;;10.23;100.00
29467;BME280;60968;37.490;-122.288;2023-06-01T05:48:19;98398.53;;;10.18;100.00
29467;BME280;60968;37.490;-122.288;2023-06-01T05:51:20;98397.78;;;10.15;100.00
29467;BME280;60968;37.490;-122.288;2023-06-01T05:54:21;98401.22;;;10.15;100.00
29467;BME280;60968;37.490;-122.288;2023-06-01T05:57:22;98398.56;;;10.17;100.00
29467;BME280;60968;37.490;-122.288;2023-06-01T06:00:23;98397.84;;;10.11;100.00
29467;BME280;60968;37.490;-122.288;2023-06-01T06:03:24;98403.97;;;10.09;100.00
29467;BME280;60968;37.490;-122.288;2023-06-01T06:06:26;98406.59;;;10.07;100.00
29467;BME280;60968;37.490;-122.288;2023-06-01T06:09:27;98416.19;;;10.05;100.00
29467;BME280;60968;37.490;-122.288;2023-06-01T06:12:29;98408.44;;;10.02;100.00
29467;BME280;60968;37.490;-122.288;2023-06-01T06:15:31;98404.19;;;9.98;100.00
29467;BME280;60968;37.490;-122.288;2023-06-01T06:18:32;98394.47;;;10.06;100.00
29467;BME280;60968;37.490;-122.288;2023-06-01T06:21:34;98401.38;;;10.09;100.00
29467;BME280;60968;37.490;-122.288;2023-06-01T06:24:35;98404.19;;;9.98;100.00
29467;BME280;60968;37.490;-122.288;2023-06-01T06:27:38;98400.84;;;9.93;100.00
29467;BME280;60968;37.490;-122.288;2023-06-01T06:30:40;98401.88;;;9.84;100.00
29467;BME280;60968;37.490;-122.288;2023-06-01T06:33:41;98399.28;;;9.84;100.00
29467;BME280;60968;37.490;-122.288;2023-06-01T06:36:41;98397.25;;;9.99;100.00
29467;BME280;60968;37.490;-122.288;2023-06-01T06:39:44;98390.16;;;10.05;100.00
29467;BME280;60968;37.490;-122.288;2023-06-01T06:42:46;98396.94;;;10.12;100.00
29467;BME280;60968;37.490;-122.288;2023-06-01T06:45:47;98390.16;;;10.05;100.00
29467;BME280;60968;37.490;-122.288;2023-06-01T06:48:48;98399.88;;;9.99;100.00
29467;BME280;60968;37.490;-122.288;2023-06-01T06:51:49;98394.50;;;10.05;100.00
29467;BME280;60968;37.490;-122.288;2023-06-01T06:54:50;98393.59;;;10.07;100.00
29467;BME280;60968;37.490;-122.288;2023-06-01T06:57:51;98398.81;;;10.07;100.00
29467;BME280;60968;37.490;-122.288;2023-06-01T07:00:53;98402.31;;;10.05;100.00
29467;BME280;60968;37.490;-122.288;2023-06-01T07:03:54;98404.19;;;9.98;100.00
29467;BME280;60968;37.490;-122.288;2023-06-01T07:06:55;98387.00;;;9.91;100.00
29467;BME280;60968;37.490;-122.288;2023-06-01T07:09:56;98394.94;;;9.85;100.00
29467;BME280;60968;37.490;-122.288;2023-06-01T07:12:57;98389.69;;;9.88;100.00
29467;BME280;60968;37.490;-122.288;2023-06-01T07:15:57;98380.88;;;9.93;100.00
29467;BME280;60968;37.490;-122.288;2023-06-01T07:18:58;98380.03;;;9.93;100.00
29467;BME280;60968;37.490;-122.288;2023-06-01T07:21:59;98376.59;;;9.91;100.00
29467;BME280;60968;37.490;-122.288;2023-06-01T07:25:00;98369.66;;;9.90;100.00
29467;BME280;60968;37.490;-122.288;2023-06-01T07:28:01;98375.72;;;9.92;100.00
29467;BME280;60968;37.490;-122.288;2023-06-01T07:31:03;98372.16;;;9.96;100.00
29467;BME280;60968;37.490;-122.288;2023-06-01T07:34:05;98370.44;;;9.95;100.00
29467;BME280;60968;37.490;-122.288;2023-06-01T07:37:07;98373.84;;;9.97;100.00
29467;BME280;60968;37.490;-122.288;2023-06-01T07:40:08;98369.63;;;9.93;100.00
29467;BME280;60968;37.490;-122.288;2023-06-01T07:43:09;98373.94;;;9.92;100.00
29467;BME280;60968;37.490;-122.288;2023-06-01T07:46:10;98382.78;;;9.85;100.00
29467;BME280;60968;37.490;-122.288;2023-06-01T07:49:11;98381.06;;;9.84;100.00
29467;BME280;60968;37.490;-122.288;2023-06-01T07:52:12;98385.41;;;9.84;100.00
29467;BME280;60968;37.490;-122.288;2023-06-01T07:55:13;98373.28;;;9.83;100.00
29467;BME280;60968;37.490;-122.288;2023-06-01T07:58:14;98386.47;;;9.75;100.00
29467;BME280;60968;37.490;-122.288;2023-06-01T08:01:17;98384.81;;;9.71;100.00
29467;BME280;60968;37.490;-122.288;2023-06-01T08:04:20;98382.09;;;9.77;100.00
29467;BME280;60968;37.490;-122.288;2023-06-01T08:07:20;98381.41;;;9.67;100.00
29467;BME280;60968;37.490;-122.288;2023-06-01T08:10:21;98382.50;;;9.57;100.00
29467;BME280;60968;37.490;-122.288;2023-06-01T08:13:22;98379.19;;;9.49;100.00
29467;BME280;60968;37.490;-122.288;2023-06-01T08:16:25;98376.88;;;9.35;100.00
29467;BME280;60968;37.490;-122.288;2023-06-01T08:19:27;98383.03;;;9.29;100.00
29467;BME280;60968;37.490;-122.288;2023-06-01T08:22:27;98371.75;;;9.30;100.00
29467;BME280;60968;37.490;-122.288;2023-06-01T08:25:29;98365.84;;;9.22;100.00
29467;BME280;60968;37.490;-122.288;2023-06-01T08:28:29;98365.03;;;9.18;100.00
29467;BME280;60968;37.490;-122.288;2023-06-01T08:31:30;98354.63;;;9.18;100.00
29467;BME280;60968;37.490;-122.288;2023-06-01T08:34:31;98353.50;;;9.33;100.00
29467;BME280;60968;37.490;-122.288;2023-06-01T08:37:32;98352.38;;;9.45;100.00
29467;BME280;60968;37.490;-122.288;2023-06-01T08:40:34;98351.47;;;9.48;100.00
29467;BME280;60968;37.490;-122.288;2023-06-01T08:43:36;98350.56;;;9.50;100.00
29467;BME280;60968;37.490;-122.288;2023-06-01T08:46:39;98350.69;;;9.44;100.00
29467;BME280;60968;37.490;-122.288;2023-06-01T08:49:45;98343.03;;;9.36;100.00
29467;BME280;60968;37.490;-122.288;2023-06-01T08:52:46;98348.44;;;9.27;100.00
29467;BME280;60968;37.490;-122.288;2023-06-01T08:55:52;98344.97;;;9.25;100.00
29467;BME280;60968;37.490;-122.288;2023-06-01T08:58:55;98338.03;;;9.27;100.00
29467;BME280;60968;37.490;-122.288;2023-06-01T09:01:58;98332.72;;;9.32;100.00
29467;BME280;60968;37.490;-122.288;2023-06-01T09:05:00;98331.81;;;9.34;100.00
29467;BME280;60968;37.490;-122.288;2023-06-01T09:08:02;98339.69;;;9.31;100.00
29467;BME280;60968;37.490;-122.288;2023-06-01T09:11:02;98340.50;;;9.33;100.00
29467;BME280;60968;37.490;-122.288;2023-06-01T09:14:22;98344.00;;;9.31;100.00
29467;BME280;60968;37.490;-122.288;2023-06-01T09:17:24;98350.94;;;9.32;100.00
29467;BME280;60968;37.490;-122.288;2023-06-01T09:20:29;98351.88;;;9.27;100.00
29467;BME280;60968;37.490;-122.288;2023-06-01T09:23:30;98353.72;;;9.21;100.00
29467;BME280;60968;37.490;-122.288;2023-06-01T09:26:31;98356.41;;;9.16;100.00
29467;BME280;60968;37.490;-122.288;2023-06-01T09:29:32;98352.06;;;9.17;100.00
29467;BME280;60968;37.490;-122.288;2023-06-01T09:32:33;98351.34;;;9.08;100.00
29467;BME280;60968;37.490;-122.288;2023-06-01T09:35:39;98342.78;;;9.05;100.00
29467;BME280;60968;37.490;-122.288;2023-06-01T09:38:40;98342.75;;;9.06;100.00
29467;BME280;60968;37.490;-122.288;2023-06-01T09:41:59;98343.53;;;9.12;100.00
29467;BME280;60968;37.490;-122.288;2023-06-01T09:45:20;98340.09;;;9.08;100.00
29467;BME280;60968;37.490;-122.288;2023-06-01T09:48:21;98336.63;;;9.09;100.00
29467;BME280;60968;37.490;-122.288;2023-06-01T09:51:23;98334.13;;;9.03;100.00
29467;BME280;60968;37.490;-122.288;2023-06-01T09:54:28;98337.59;;;9.03;100.00
29467;BME280;60968;37.490;-122.288;2023-06-01T09:57:29;98333.41;;;8.96;100.00
29467;BME280;60968;37.490;-122.288;2023-06-01T10:00:30;98343.03;;;8.91;100.00
29467;BME280;60968;37.490;-122.288;2023-06-01T10:03:32;98339.63;;;8.89;100.00
29467;BME280;60968;37.490;-122.288;2023-06-01T10:06:38;98344.00;;;8.85;100.00
29467;BME280;60968;37.490;-122.288;2023-06-01T10:09:43;98341.53;;;8.76;100.00
29467;BME280;60968;37.490;-122.288;2023-06-01T10:12:45;98338.06;;;8.77;100.00
29467;BME280;60968;37.490;-122.288;2023-06-01T10:15:46;98339.66;;;8.84;100.00
29467;BME280;60968;37.490;-122.288;2023-06-01T10:18:47;98333.47;;;8.93;100.00
29467;BME280;60968;37.490;-122.288;2023-06-01T10:21:48;98329.00;;;9.00;100.00
29467;BME280;60968;37.490;-122.288;2023-06-01T10:24:50;98335.06;;;9.00;100.00
29467;BME280;60968;37.490;-122.288;2023-06-01T10:27:58;98330.69;;;9.02;100.00
29467;BME280;60968;37.490;-122.288;2023-06-01T10:31:38;98333.41;;;8.96;100.00
29467;BME280;60968;37.490;-122.288;2023-06-01T10:34:44;98337.28;;;8.73;100.00
29467;BME280;60968;37.490;-122.288;2023-06-01T10:41:31;98334.94;;;8.58;100.00
29467;BME280;60968;37.490;-122.288;2023-06-01T10:44:50;98335.88;;;8.54;100.00
29467;BME280;60968;37.490;-122.288;2023-06-01T10:47:52;98332.34;;;8.58;100.00
29467;BME280;60968;37.490;-122.288;2023-06-01T10:51:16;98329.75;;;8.58;100.00
29467;BME280;60968;37.490;-122.288;2023-06-01T10:54:25;98334.03;;;8.59;100.00
29467;BME280;60968;37.490;-122.288;2023-06-01T10:57:26;98339.22;;;8.61;100.00
29467;BME280;60968;37.490;-122.288;2023-06-01T11:00:27;98334.84;;;8.64;100.00
29467;BME280;60968;37.490;-122.288;2023-06-01T11:03:45;98341.81;;;8.61;100.00
29467;BME280;60968;37.490;-122.288;2023-06-01T11:06:46;98341.03;;;8.57;100.00
29467;BME280;60968;37.490;-122.288;2023-06-01T11:09:47;98337.56;;;8.58;100.00
29467;BME280;60968;37.490;-122.288;2023-06-01T11:13:13;98337.56;;;8.58;100.00
29467;BME280;60968;37.490;-122.288;2023-06-01T11:19:22;98336.81;;;8.50;100.00
29467;BME280;60968;37.490;-122.288;2023-06-01T11:22:24;98334.25;;;8.48;100.00
29467;BME280;60968;37.490;-122.288;2023-06-01T11:25:27;98326.47;;;8.48;100.00
29467;BME280;60968;37.490;-122.288;2023-06-01T11:28:29;98333.41;;;8.43;100.00
29467;BME280;60968;37.490;-122.288;2023-06-01T11:31:35;98336.09;;;8.38;100.00
29467;BME280;60968;37.490;-122.288;2023-06-01T11:34:40;98335.22;;;8.38;100.00
29467;BME280;60968;37.490;-122.288;2023-06-01T11:37:41;98330.84;;;8.45;100.00
29467;BME280;60968;37.490;-122.288;2023-06-01T11:40:59;98336.81;;;8.50;100.00
29467;BME280;60968;37.490;-122.288;2023-06-01T11:44:00;98333.34;;;8.49;100.00
29467;BME280;60968;37.490;-122.288;2023-06-01T11:47:02;98339.28;;;8.56;100.00
29467;BME280;60968;37.490;-122.288;2023-06-01T11:50:06;98338.38;;;8.60;100.00
29467;BME280;60968;37.490;-122.288;2023-06-01T11:53:07;98338.31;;;8.63;100.00
29467;BME280;60968;37.490;-122.288;2023-06-01T11:56:08;98333.09;;;8.65;100.00
29467;BME280;60968;37.490;-122.288;2023-06-01T11:59:09;98338.31;;;8.63;100.00
29467;BME280;60968;37.490;-122.288;2023-06-01T12:02:39;98344.34;;;8.65;100.00
29467;BME280;60968;37.490;-122.288;2023-06-01T12:05:40;98342.59;;;8.66;100.00
29467;BME280;60968;37.490;-122.288;2023-06-01T12:08:41;98339.25;;;8.59;100.00
29467;BME280;60968;37.490;-122.288;2023-06-01T12:11:43;98335.97;;;8.48;100.00
29467;BME280;60968;37.490;-122.288;2023-06-01T12:14:48;98343.81;;;8.45;100.00
29467;BME280;60968;37.490;-122.288;2023-06-01T12:17:54;98338.63;;;8.43;100.00
29467;BME280;60968;37.490;-122.288;2023-06-01T12:20:55;98339.47;;;8.44;100.00
29467;BME280;60968;37.490;-122.288;2023-06-01T12:23:56;98342.94;;;8.44;100.00
29467;BME280;60968;37.490;-122.288;2023-06-01T12:26:59;98347.16;;;8.51;100.00
29467;BME280;60968;37.490;-122.288;2023-06-01T12:30:00;98339.25;;;8.57;100.00
29467;BME280;60968;37.490;-122.288;2023-06-01T12:33:01;98347.03;;;8.59;100.00
29467;BME280;60968;37.490;-122.288;2023-06-01T12:36:02;98343.53;;;8.62;100.00
29467;BME280;60968;37.490;-122.288;2023-06-01T12:39:04;98347.00;;;8.61;100.00
29467;BME280;60968;37.490;-122.288;2023-06-01T12:42:05;98353.94;;;8.60;100.00
29467;BME280;60968;37.490;-122.288;2023-06-01T12:45:09;98351.41;;;8.57;100.00
29467;BME280;60968;37.490;-122.288;2023-06-01T12:48:35;98364.31;;;8.62;100.00
29467;BME280;60968;37.490;-122.288;2023-06-01T12:51:39;98364.38;;;8.58;100.00
29467;BME280;60968;37.490;-122.288;2023-06-01T12:54:42;98364.34;;;8.60;100.00
29467;BME280;60968;37.490;-122.288;2023-06-01T12:57:51;98363.44;;;8.63;100.00
29467;BME280;60968;37.490;-122.288;2023-06-01T13:00:52;98371.34;;;8.56;100.00
29467;BME280;60968;37.490;-122.288;2023-06-01T13:03:53;98365.44;;;8.47;100.00
29467;BME280;60968;37.490;-122.288;2023-06-01T13:06:54;98374.13;;;8.39;100.00
29467;BME280;60968;37.490;-122.288;2023-06-01T13:09:54;98374.13;;;8.39;100.00
29467;BME280;60968;37.490;-122.288;2023-06-01T13:12:55;98381.06;;;8.40;100.00
29467;BME280;60968;37.490;-122.288;2023-06-01T13:15:58;98379.34;;;8.38;100.00
29467;BME280;60968;37.490;-122.288;2023-06-01T13:18:59;98376.78;;;8.36;100.00
29467;BME280;60968;37.490;-122.288;2023-06-01T13:22:00;98372.38;;;8.43;100.00
29467;BME280;60968;37.490;-122.288;2023-06-01T13:25:01;98382.56;;;8.57;100.00
29467;BME280;60968;37.490;-122.288;2023-06-01T13:28:02;98377.19;;;8.66;100.00
29467;BME280;60968;37.490;-122.288;2023-06-01T13:31:03;98378.03;;;8.70;100.00
29467;BME280;60968;37.490;-122.288;2023-06-01T13:34:04;98384.81;;;8.77;100.00
29467;BME280;60968;37.490;-122.288;2023-06-01T13:37:05;98389.09;;;8.81;100.00
29467;BME280;60968;37.490;-122.288;2023-06-01T13:40:07;98389.81;;;8.89;100.00
29467;BME280;60968;37.490;-122.288;2023-06-01T13:43:08;98389.63;;;9.00;100.00
29467;BME280;60968;37.490;-122.288;2023-06-01T13:46:08;98395.50;;;9.12;100.00
29467;BME280;60968;37.490;-122.288;2023-06-01T13:49:10;98405.72;;;9.21;100.00
29467;BME280;60968;37.490;-122.288;2023-06-01T13:52:11;98402.13;;;9.26;100.00
29467;BME280;60968;37.490;-122.288;2023-06-01T13:55:12;98401.13;;;9.35;100.00
29467;BME280;60968;37.490;-122.288;2023-06-01T13:58:14;98398.34;;;9.44;100.00
29467;BME280;60968;37.490;-122.288;2023-06-01T14:01:15;98397.25;;;9.55;100.00
29467;BME280;60968;37.490;-122.288;2023-06-01T14:04:17;98407.44;;;9.67;100.00
29467;BME280;60968;37.490;-122.288;2023-06-01T14:07:20;98401.84;;;9.87;100.00
29467;BME280;60968;37.490;-122.288;2023-06-01T14:10:20;98401.56;;;10.00;100.00
29467;BME280;60968;37.490;-122.288;2023-06-01T14:13:21;98405.66;;;10.11;100.00
29467;BME280;60968;37.490;-122.288;2023-06-01T14:16:22;98408.84;;;10.24;100.00
29467;BME280;60968;37.490;-122.288;2023-06-01T14:19:23;98423.31;;;10.38;100.00
29467;BME280;60968;37.490;-122.288;2023-06-01T14:22:24;98423.91;;;10.49;100.00
29467;BME280;60968;37.490;-122.288;2023-06-01T14:25:25;98419.38;;;10.57;100.00
29467;BME280;60968;37.490;-122.288;2023-06-01T14:28:26;98416.91;;;10.89;100.00
29467;BME280;60968;37.490;-122.288;2023-06-01T14:31:27;98429.06;;;10.88;100.00
29467;BME280;60968;37.490;-122.288;2023-06-01T14:34:30;98432.25;;;10.99;100.00
29467;BME280;60968;37.490;-122.288;2023-06-01T14:37:31;98432.34;;;11.31;100.00
29467;BME280;60968;37.490;-122.288;2023-06-01T14:40:32;98437.59;;;11.62;100.00
29467;BME280;60968;37.490;-122.288;2023-06-01T14:43:34;98436.00;;;12.20;100.00
29467;BME280;60968;37.490;-122.288;2023-06-01T14:46:34;98442.41;;;12.66;100.00
29467;BME280;60968;37.490;-122.288;2023-06-01T14:49:35;98434.47;;;12.96;100.00
29467;BME280;60968;37.490;-122.288;2023-06-01T14:52:36;98438.16;;;12.90;100.00
29467;BME280;60968;37.490;-122.288;2023-06-01T14:55:39;98438.81;;;12.70;100.00
29467;BME280;60968;37.490;-122.288;2023-06-01T14:58:40;98448.78;;;12.85;100.00
29467;BME280;60968;37.490;-122.288;2023-06-01T15:01:41;98445.66;;;13.01;99.41
29467;BME280;60968;37.490;-122.288;2023-06-01T15:04:44;98437.47;;;13.10;99.23
29467;BME280;60968;37.490;-122.288;2023-06-01T15:07:44;98446.50;;;13.01;96.83
29467;BME280;60968;37.490;-122.288;2023-06-01T15:10:46;98446.22;;;13.36;95.42
29467;BME280;60968;37.490;-122.288;2023-06-01T15:13:46;98443.69;;;14.31;89.59
29467;BME280;60968;37.490;-122.288;2023-06-01T15:16:49;98439.91;;;14.84;83.43
29467;BME280;60968;37.490;-122.288;2023-06-01T15:19:49;98449.72;;;15.01;84.79
29467;BME280;60968;37.490;-122.288;2023-06-01T15:22:51;98455.97;;;14.29;85.65
29467;BME280;60968;37.490;-122.288;2023-06-01T15:25:53;98453.72;;;13.72;90.17
29467;BME280;60968;37.490;-122.288;2023-06-01T15:28:54;98460.38;;;13.55;91.36
29467;BME280;60968;37.490;-122.288;2023-06-01T15:31:56;98462.94;;;13.57;90.72
29467;BME280;60968;37.490;-122.288;2023-06-01T15:34:58;98465.31;;;13.65;92.04
29467;BME280;60968;37.490;-122.288;2023-06-01T15:38:00;98466.06;;;13.43;90.14